createdAt,value
2022-10-13T00:01:14.799Z,8.73
2022-10-13T00:03:42.740Z,8.87
2022-10-13T00:06:11.614Z,8.77
2022-10-13T00:08:39.491Z,9.37
2022-10-13T00:11:16.774Z,9.07
2022-10-13T00:13:44.646Z,9.27
2022-10-13T00:16:14.434Z,9.20
2022-10-13T00:18:42.204Z,9.50
2022-10-13T00:21:20.196Z,8.90
2022-10-13T00:23:47.850Z,8.27
2022-10-13T00:26:17.968Z,8.57
2022-10-13T00:28:49.752Z,8.40
2022-10-13T00:31:26.404Z,8.83
2022-10-13T00:33:54.259Z,8.27
2022-10-13T00:36:23.360Z,8.20
2022-10-13T00:38:53.005Z,7.90
2022-10-13T00:41:21.028Z,8.43
2022-10-13T00:44:05.293Z,7.83
2022-10-13T00:46:37.567Z,8.13
2022-10-13T00:49:13.139Z,8.67
2022-10-13T00:51:44.900Z,8.10
2022-10-13T00:54:18.635Z,7.87
2022-10-13T00:56:46.953Z,7.57
2022-10-13T00:59:29.025Z,7.30
2022-10-13T01:01:58.990Z,7.60
2022-10-13T01:04:50.281Z,7.40
2022-10-13T01:07:19.195Z,7.00
2022-10-13T01:09:47.262Z,7.80
2022-10-13T01:12:41.906Z,7.57
2022-10-13T01:15:26.561Z,7.23
2022-10-13T01:18:28.101Z,8.10
2022-10-13T01:21:46.752Z,7.53
2022-10-13T01:24:38.746Z,7.93
2022-10-13T01:27:46.016Z,8.20
2022-10-13T01:30:19.640Z,8.00
2022-10-13T01:33:20.507Z,7.73
2022-10-13T01:36:11.578Z,8.10
2022-10-13T01:38:55.241Z,8.13
2022-10-13T01:41:39.431Z,8.13
2022-10-13T01:44:24.512Z,8.27
2022-10-13T01:46:53.581Z,7.40
2022-10-13T01:49:26.786Z,7.90
2022-10-13T01:51:56.642Z,7.97
2022-10-13T01:54:23.533Z,7.30
2022-10-13T01:56:55.254Z,8.17
2022-10-13T01:59:24.580Z,8.73
2022-10-13T02:02:00.245Z,7.80
2022-10-13T02:04:56.859Z,7.80
2022-10-13T02:08:07.724Z,8.20
2022-10-13T02:10:58.674Z,8.13
2022-10-13T02:13:28.586Z,7.90
2022-10-13T02:15:59.301Z,8.23
2022-10-13T02:18:35.265Z,7.60
2022-10-13T02:21:03.652Z,7.90
2022-10-13T02:23:31.025Z,7.93
2022-10-13T02:25:59.858Z,7.90
2022-10-13T02:28:28.380Z,8.10
2022-10-13T02:30:55.315Z,7.50
2022-10-13T02:33:22.362Z,6.97
2022-10-13T02:35:49.275Z,8.10
2022-10-13T02:38:16.136Z,8.07
2022-10-13T02:40:43.109Z,8.00
2022-10-13T02:43:10.043Z,7.63
2022-10-13T02:45:36.984Z,8.10
2022-10-13T02:48:04.008Z,8.63
2022-10-13T02:50:30.877Z,8.20
2022-10-13T02:52:57.838Z,8.53
2022-10-13T02:55:24.798Z,7.70
2022-10-13T02:57:51.733Z,8.27
2022-10-13T03:00:18.877Z,8.03
2022-10-13T03:02:45.792Z,8.60
2022-10-13T03:05:12.843Z,8.60
2022-10-13T03:07:39.779Z,8.70
2022-10-13T03:10:07.128Z,8.53
2022-10-13T03:12:34.166Z,8.77
2022-10-13T03:15:01.172Z,8.20
2022-10-13T03:17:28.158Z,9.50
2022-10-13T03:19:55.165Z,9.00
2022-10-13T03:22:22.497Z,9.43
2022-10-13T03:24:49.660Z,9.53
2022-10-13T03:27:16.560Z,9.83
2022-10-13T03:29:43.679Z,9.30
2022-10-13T03:32:10.590Z,9.23
2022-10-13T03:34:37.564Z,9.30
2022-10-13T03:37:04.631Z,9.20
2022-10-13T03:39:31.532Z,10.00
2022-10-13T03:41:58.619Z,9.17
2022-10-13T03:44:25.702Z,9.97
2022-10-13T03:46:52.598Z,8.90
2022-10-13T03:49:19.529Z,9.47
2022-10-13T03:51:46.633Z,10.17
2022-10-13T03:54:14.195Z,9.97
2022-10-13T03:56:42.415Z,9.50
2022-10-13T03:59:13.237Z,9.13
2022-10-13T04:01:40.597Z,10.50
2022-10-13T04:04:09.225Z,9.50
2022-10-13T04:06:36.115Z,10.13
2022-10-13T04:09:03.765Z,9.77
2022-10-13T04:11:30.843Z,9.83
2022-10-13T04:13:58.771Z,10.00
2022-10-13T04:16:29.391Z,10.77
2022-10-13T04:19:03.115Z,10.10
2022-10-13T04:21:33.303Z,10.73
2022-10-13T04:24:01.605Z,9.90
2022-10-13T04:26:32.036Z,10.13
2022-10-13T04:29:00.007Z,9.53
2022-10-13T04:31:29.519Z,9.80
2022-10-13T04:33:56.896Z,11.00
2022-10-13T04:36:24.525Z,11.13
2022-10-13T04:38:53.940Z,14.80
2022-10-13T04:41:21.061Z,10.87
2022-10-13T04:43:50.005Z,10.13
2022-10-13T04:46:27.348Z,11.40
2022-10-13T04:48:55.492Z,10.77
2022-10-13T04:51:25.011Z,11.30
2022-10-13T04:54:01.111Z,11.83
2022-10-13T04:56:28.825Z,12.27
2022-10-13T04:58:55.840Z,12.07
2022-10-13T05:01:24.818Z,11.53
2022-10-13T05:03:59.867Z,12.70
2022-10-13T05:06:30.214Z,12.77
2022-10-13T05:08:57.739Z,13.57
2022-10-13T05:11:29.251Z,13.17
2022-10-13T05:13:57.409Z,13.20
2022-10-13T05:16:25.454Z,13.37
2022-10-13T05:18:54.757Z,12.70
2022-10-13T05:21:28.348Z,13.70
2022-10-13T05:23:57.309Z,14.27
2022-10-13T05:26:29.058Z,14.00
2022-10-13T05:29:01.269Z,14.00
2022-10-13T05:31:30.274Z,13.73
2022-10-13T05:33:57.370Z,14.57
2022-10-13T05:36:31.434Z,13.50
2022-10-13T05:39:03.219Z,14.93
2022-10-13T05:41:30.781Z,13.37
2022-10-13T05:44:03.351Z,14.00
2022-10-13T05:46:30.503Z,15.07
2022-10-13T05:48:57.406Z,14.70
2022-10-13T05:51:38.823Z,14.90
2022-10-13T05:54:30.849Z,15.57
2022-10-13T05:57:04.167Z,14.83
2022-10-13T05:59:38.060Z,15.83
2022-10-13T06:02:08.526Z,16.10
2022-10-13T06:04:44.739Z,16.20
2022-10-13T06:07:12.341Z,15.60
2022-10-13T06:09:41.200Z,16.17
2022-10-13T06:12:09.405Z,14.83
2022-10-13T06:14:36.681Z,16.00
2022-10-13T06:17:03.843Z,15.03
2022-10-13T06:19:30.773Z,14.80
2022-10-13T06:22:02.577Z,15.20
2022-10-13T06:24:30.526Z,13.97
2022-10-13T06:26:57.511Z,14.80
2022-10-13T06:29:24.432Z,14.37
2022-10-13T06:31:51.414Z,14.43
2022-10-13T06:34:18.337Z,13.73
2022-10-13T06:36:45.306Z,13.73
2022-10-13T06:39:12.253Z,13.67
2022-10-13T06:41:39.168Z,14.30
2022-10-13T06:44:06.052Z,13.63
2022-10-13T06:46:32.978Z,14.33
2022-10-13T06:49:00.007Z,14.33
2022-10-13T06:51:27.019Z,14.23
2022-10-13T06:53:56.959Z,14.57
2022-10-13T06:56:24.064Z,14.27
2022-10-13T06:58:51.062Z,14.43
2022-10-13T07:01:18.021Z,15.63
2022-10-13T07:03:45.023Z,14.70
2022-10-13T07:06:11.997Z,14.57
2022-10-13T07:08:38.889Z,13.47
2022-10-13T07:11:16.438Z,14.50
2022-10-13T07:13:46.603Z,14.53
2022-10-13T07:16:15.475Z,13.87
2022-10-13T07:18:42.525Z,13.23
2022-10-13T07:21:10.149Z,13.50
2022-10-13T07:23:37.096Z,14.20
2022-10-13T07:26:08.967Z,14.00
2022-10-13T07:28:35.954Z,12.67
2022-10-13T07:31:13.716Z,13.93
2022-10-13T07:33:44.537Z,13.97
2022-10-13T07:36:12.623Z,13.27
2022-10-13T07:38:39.963Z,13.47
2022-10-13T07:41:10.345Z,13.47
2022-10-13T07:43:37.428Z,12.60
2022-10-13T07:46:05.713Z,13.13
2022-10-13T07:48:33.802Z,12.23
2022-10-13T07:51:05.942Z,12.23
2022-10-13T07:53:33.076Z,12.57
2022-10-13T07:56:05.894Z,12.70
2022-10-13T07:58:34.203Z,12.63
2022-10-13T08:01:02.492Z,12.33
2022-10-13T08:03:30.471Z,12.13
2022-10-13T08:06:00.346Z,12.63
2022-10-13T08:08:27.972Z,12.00
2022-10-13T08:10:56.095Z,11.60
2022-10-13T08:13:23.006Z,12.37
2022-10-13T08:15:49.981Z,11.37
2022-10-13T08:18:16.965Z,11.40
2022-10-13T08:20:45.858Z,10.63
2022-10-13T08:23:13.925Z,11.27
2022-10-13T08:25:43.400Z,10.40
2022-10-13T08:28:25.862Z,10.07
2022-10-13T08:30:53.990Z,10.23
2022-10-13T08:33:21.127Z,10.50
2022-10-13T08:35:48.055Z,11.10
2022-10-13T08:38:15.020Z,10.60
2022-10-13T08:40:48.780Z,11.83
2022-10-13T08:43:20.290Z,10.70
2022-10-13T08:45:51.356Z,10.30
2022-10-13T08:48:44.594Z,10.80
2022-10-13T08:51:15.973Z,10.47
2022-10-13T08:53:46.325Z,10.93
2022-10-13T08:56:31.220Z,11.00
2022-10-13T08:58:58.493Z,10.65
2022-10-13T09:01:36.827Z,11.20
2022-10-13T09:04:49.377Z,10.52
2022-10-13T09:07:22.500Z,11.17
2022-10-13T09:09:54.558Z,11.37
2022-10-13T09:12:25.779Z,11.57
2022-10-13T09:15:05.747Z,11.37
2022-10-13T09:17:34.486Z,10.20
2022-10-13T09:20:25.639Z,10.77
2022-10-13T09:23:20.801Z,11.40
2022-10-13T09:25:52.689Z,10.70
2022-10-13T09:28:26.799Z,10.77
2022-10-13T09:31:23.540Z,10.90
2022-10-13T09:34:14.440Z,10.53
2022-10-13T09:36:59.073Z,10.90
2022-10-13T09:39:26.798Z,11.20
2022-10-13T09:42:29.515Z,11.53
2022-10-13T09:45:15.733Z,11.70
2022-10-13T09:47:52.318Z,11.80
2022-10-13T09:50:32.139Z,12.10
2022-10-13T09:53:37.302Z,13.77
2022-10-13T09:56:31.300Z,13.70
2022-10-13T09:59:27.744Z,13.43
2022-10-13T10:01:56.309Z,13.87
2022-10-13T10:04:32.038Z,14.93
2022-10-13T10:06:58.940Z,15.07
2022-10-13T10:09:50.617Z,14.03
2022-10-13T10:12:24.193Z,14.70
2022-10-13T10:14:54.640Z,15.47
2022-10-13T10:17:45.037Z,16.97
2022-10-13T10:21:02.547Z,16.30
2022-10-13T10:23:54.652Z,16.23
2022-10-13T10:26:40.894Z,15.97
2022-10-13T10:30:04.737Z,17.47
2022-10-13T10:32:55.035Z,17.07
2022-10-13T10:35:37.444Z,17.10
2022-10-13T10:38:38.540Z,17.80
2022-10-13T10:41:51.030Z,17.00
2022-10-13T10:44:31.549Z,17.33
2022-10-13T10:47:11.288Z,17.63
2022-10-13T10:49:39.525Z,17.20
2022-10-13T10:52:11.540Z,17.53
2022-10-13T10:54:54.026Z,17.23
2022-10-13T10:57:47.185Z,17.50
2022-10-13T11:00:19.888Z,18.37
2022-10-13T11:03:02.346Z,17.20
2022-10-13T11:05:57.144Z,17.13
2022-10-13T11:08:49.316Z,17.47
2022-10-13T11:11:29.254Z,17.23
2022-10-13T11:14:05.806Z,17.67
2022-10-13T11:16:38.143Z,16.57
2022-10-13T11:19:37.988Z,15.93
2022-10-13T11:22:05.432Z,17.70
2022-10-13T11:24:41.197Z,16.50
2022-10-13T11:27:08.012Z,18.03
2022-10-13T11:29:54.714Z,17.47
2022-10-13T11:32:30.478Z,18.23
2022-10-13T11:35:10.720Z,16.73
2022-10-13T11:38:07.426Z,17.73
2022-10-13T11:40:59.136Z,17.37
2022-10-13T11:43:51.776Z,16.57
2022-10-13T11:47:12.187Z,15.80
2022-10-13T11:49:47.857Z,16.40
2022-10-13T11:52:29.363Z,15.53
2022-10-13T11:55:13.953Z,15.87
2022-10-13T11:57:40.912Z,16.27
2022-10-13T12:00:18.286Z,16.87
2022-10-13T12:02:51.003Z,14.73
2022-10-13T12:05:28.295Z,15.47
2022-10-13T12:08:04.012Z,14.45
2022-10-13T12:10:35.515Z,14.70
2022-10-13T12:13:04.455Z,13.43
2022-10-13T12:15:42.489Z,12.90
2022-10-13T12:18:34.046Z,13.05
2022-10-13T12:21:11.639Z,12.95
2022-10-13T12:23:39.344Z,12.27
2022-10-13T12:26:07.056Z,12.00
2022-10-13T12:29:01.195Z,12.27
2022-10-13T12:31:49.904Z,11.57
2022-10-13T12:34:28.967Z,12.37
2022-10-13T12:37:21.725Z,13.00
2022-10-13T12:39:49.391Z,13.33
2022-10-13T12:42:16.427Z,14.85
2022-10-13T12:44:44.927Z,14.40
2022-10-13T12:47:44.037Z,14.63
2022-10-13T12:50:29.983Z,14.43
2022-10-13T12:53:08.749Z,15.93
2022-10-13T12:55:59.243Z,13.80
2022-10-13T12:58:32.910Z,14.17
2022-10-13T13:01:14.766Z,14.73
2022-10-13T13:03:44.013Z,14.40
2022-10-13T13:06:37.408Z,15.50
2022-10-13T13:09:35.027Z,15.53
2022-10-13T13:12:10.815Z,15.30
2022-10-13T13:14:49.348Z,13.93
2022-10-13T13:17:33.003Z,15.03
2022-10-13T13:20:27.055Z,14.63
2022-10-13T13:22:55.012Z,15.20
2022-10-13T13:25:22.216Z,14.60
2022-10-13T13:27:49.374Z,15.10
2022-10-13T13:30:19.928Z,15.60
2022-10-13T13:32:47.370Z,14.40
2022-10-13T13:35:14.762Z,15.90
2022-10-13T13:37:48.915Z,14.83
2022-10-13T13:40:20.279Z,14.13
2022-10-13T13:42:47.215Z,15.17
2022-10-13T13:45:16.176Z,14.00
2022-10-13T13:47:44.908Z,14.13
2022-10-13T13:50:21.141Z,14.15
2022-10-13T13:52:48.268Z,15.20
2022-10-13T13:55:15.337Z,14.32
2022-10-13T13:57:43.749Z,13.70
2022-10-13T14:00:15.254Z,14.85
2022-10-13T14:02:43.971Z,15.23
2022-10-13T14:05:12.434Z,15.55
2022-10-13T14:07:40.684Z,15.05
2022-10-13T14:10:09.556Z,14.68
2022-10-13T14:12:36.657Z,15.88
2022-10-13T14:15:04.768Z,14.90
2022-10-13T14:17:31.666Z,15.32
2022-10-13T14:19:58.565Z,16.70
2022-10-13T14:22:25.800Z,16.00
2022-10-13T14:24:53.179Z,16.77
2022-10-13T14:27:20.130Z,15.20
2022-10-13T14:29:47.287Z,15.93
2022-10-13T14:32:14.307Z,16.07
2022-10-13T14:34:41.221Z,15.40
2022-10-13T14:37:08.178Z,15.90
2022-10-13T14:39:35.093Z,14.60
2022-10-13T14:42:02.058Z,15.23
2022-10-13T14:44:29.007Z,14.43
2022-10-13T14:46:56.113Z,13.68
2022-10-13T14:49:23.178Z,13.00
2022-10-13T14:51:50.128Z,12.57
2022-10-13T14:54:17.125Z,11.30
2022-10-13T14:56:44.827Z,10.13
2022-10-13T14:59:12.588Z,9.07
2022-10-13T15:01:43.467Z,8.90
2022-10-13T15:04:10.949Z,7.65
2022-10-13T15:06:41.521Z,8.00
2022-10-13T15:11:41.827Z,7.10
2022-10-13T15:14:09.898Z,7.80
2022-10-13T15:16:37.925Z,8.17
2022-10-13T15:19:05.461Z,8.00
2022-10-13T15:21:32.517Z,6.77
2022-10-13T15:23:59.413Z,6.97
2022-10-13T15:26:26.334Z,7.07
2022-10-13T15:28:54.122Z,7.83
2022-10-13T15:31:22.962Z,7.40
2022-10-13T15:33:53.253Z,6.20
2022-10-13T15:36:22.467Z,6.13
2022-10-13T15:38:49.645Z,6.33
2022-10-13T15:41:16.723Z,6.53
2022-10-13T15:43:43.763Z,6.07
2022-10-13T15:46:21.519Z,5.77
2022-10-13T15:48:53.389Z,5.50
2022-10-13T15:51:24.038Z,5.70
2022-10-13T15:53:51.221Z,5.40
2022-10-13T15:56:18.515Z,6.30
2022-10-13T15:58:45.860Z,6.32
2022-10-13T16:01:14.313Z,7.80
2022-10-13T16:03:42.439Z,9.63
2022-10-13T16:06:12.422Z,9.87
2022-10-13T16:08:41.393Z,6.97
2022-10-13T16:11:14.877Z,7.17
2022-10-13T16:13:46.128Z,8.82
2022-10-13T16:16:13.178Z,8.52
2022-10-13T16:18:41.221Z,9.03
2022-10-13T16:21:18.839Z,10.73
2022-10-13T16:23:47.824Z,7.88
2022-10-13T16:26:17.391Z,8.70
2022-10-13T16:28:45.769Z,10.10
2022-10-13T16:31:15.403Z,10.50
2022-10-13T16:33:44.120Z,10.23
2022-10-13T16:36:15.392Z,10.63
2022-10-13T16:38:44.102Z,11.10
2022-10-13T16:41:15.786Z,11.80
2022-10-13T16:43:44.901Z,9.20
2022-10-13T16:46:14.476Z,9.90
2022-10-13T16:48:43.078Z,12.35
2022-10-13T16:51:22.800Z,10.27
2022-10-13T16:53:52.663Z,9.90
2022-10-13T16:56:23.858Z,9.52
2022-10-13T16:58:57.659Z,9.88
2022-10-13T17:01:29.660Z,10.00
2022-10-13T17:03:57.680Z,11.10
2022-10-13T17:06:27.816Z,10.80
2022-10-13T17:08:57.598Z,10.67
2022-10-13T17:11:29.947Z,11.37
2022-10-13T17:13:59.414Z,11.20
2022-10-13T17:16:27.079Z,11.07
2022-10-13T17:18:55.069Z,11.13
2022-10-13T17:21:22.268Z,11.07
2022-10-13T17:23:49.825Z,10.73
2022-10-13T17:26:18.480Z,10.90
2022-10-13T17:28:45.885Z,10.60
2022-10-13T17:31:23.106Z,11.60
2022-10-13T17:33:51.437Z,13.80
2022-10-13T17:36:25.427Z,14.00
2022-10-13T17:38:55.120Z,14.98
2022-10-13T17:41:23.829Z,16.55
2022-10-13T17:43:52.141Z,18.60
2022-10-13T17:46:36.157Z,20.48
2022-10-13T17:49:05.146Z,20.92
2022-10-13T17:51:32.069Z,21.83
2022-10-13T17:54:00.539Z,22.33
2022-10-13T17:56:28.232Z,20.80
2022-10-13T17:58:55.460Z,22.30
2022-10-13T18:01:29.179Z,21.57
2022-10-13T18:04:00.176Z,21.37
2022-10-13T18:06:38.463Z,20.83
2022-10-13T18:09:18.757Z,21.80
2022-10-13T18:11:50.653Z,22.03
2022-10-13T18:14:24.689Z,25.08
2022-10-13T18:16:52.815Z,26.17
2022-10-13T18:19:21.556Z,25.93
2022-10-13T18:21:49.312Z,25.93
2022-10-13T18:24:16.644Z,25.93
2022-10-13T18:26:43.633Z,27.73
2022-10-13T18:29:14.099Z,27.45
2022-10-13T18:31:41.874Z,27.83
2022-10-13T18:34:14.250Z,28.33
2022-10-13T18:36:50.755Z,25.90
2022-10-13T18:39:27.039Z,26.42
2022-10-13T18:41:56.317Z,26.30
2022-10-13T18:44:24.148Z,25.63
2022-10-13T18:46:52.986Z,25.27
2022-10-13T18:49:30.854Z,24.23
2022-10-13T18:51:59.782Z,24.30
2022-10-13T18:54:28.277Z,23.95
2022-10-13T18:56:55.270Z,24.73
2022-10-13T18:59:22.263Z,23.87
2022-10-13T19:01:49.983Z,23.60
2022-10-13T19:04:19.265Z,24.13
2022-10-13T19:06:46.537Z,23.63
2022-10-13T19:09:16.012Z,24.30
2022-10-13T19:11:43.011Z,26.98
2022-10-13T19:14:13.636Z,25.92
2022-10-13T19:16:43.737Z,28.30
2022-10-13T19:19:11.427Z,25.67
2022-10-13T19:21:39.332Z,27.73
2022-10-13T19:24:07.823Z,25.93
2022-10-13T19:26:36.822Z,24.95
2022-10-13T19:29:08.639Z,26.53
2022-10-13T19:31:37.455Z,27.43
2022-10-13T19:34:04.813Z,25.83
2022-10-13T19:36:37.588Z,25.67
2022-10-13T19:39:21.725Z,25.77
2022-10-13T19:41:51.457Z,26.93
2022-10-13T19:44:20.150Z,28.73
2022-10-13T19:46:48.320Z,25.47
2022-10-13T19:49:18.429Z,25.40
2022-10-13T19:51:47.148Z,23.90
2022-10-13T19:54:14.814Z,24.25
2022-10-13T19:56:41.727Z,23.83
2022-10-13T19:59:08.827Z,23.43
2022-10-13T20:01:40.026Z,23.50
2022-10-13T20:04:10.737Z,22.90
2022-10-13T20:06:37.827Z,22.93
2022-10-13T20:09:05.868Z,24.63
2022-10-13T20:11:32.846Z,25.90
2022-10-13T20:13:59.833Z,24.73
2022-10-13T20:16:26.859Z,24.88
2022-10-13T20:19:00.270Z,24.80
2022-10-13T20:21:28.266Z,24.47
2022-10-13T20:23:56.229Z,25.07
2022-10-13T20:26:24.824Z,24.30
2022-10-13T20:28:53.391Z,24.58
2022-10-13T20:31:22.020Z,23.07
2022-10-13T20:33:56.456Z,23.77
2022-10-13T20:36:25.557Z,23.40
2022-10-13T20:38:52.815Z,23.60
2022-10-13T20:41:29.518Z,23.63
2022-10-13T20:44:01.413Z,22.77
2022-10-13T20:46:28.345Z,22.23
2022-10-13T20:49:12.985Z,23.40
2022-10-13T20:51:42.700Z,23.43
2022-10-13T20:54:14.451Z,23.07
2022-10-13T20:56:41.841Z,23.07
2022-10-13T20:59:12.532Z,23.23
2022-10-13T21:01:39.692Z,23.45
2022-10-13T21:04:07.100Z,23.47
2022-10-13T21:06:35.697Z,23.05
2022-10-13T21:09:04.618Z,23.42
2022-10-13T21:11:31.719Z,23.80
2022-10-13T21:13:58.764Z,24.40
2022-10-13T21:16:29.174Z,24.75
2022-10-13T21:18:57.929Z,26.17
2022-10-13T21:21:31.769Z,26.20
2022-10-13T21:24:06.117Z,26.73
2022-10-13T21:26:33.674Z,25.57
2022-10-13T21:29:02.318Z,25.27
2022-10-13T21:31:30.038Z,25.83
2022-10-13T21:33:57.781Z,24.50
2022-10-13T21:36:32.473Z,24.87
2022-10-13T21:39:03.854Z,24.63
2022-10-13T21:41:31.286Z,24.13
2022-10-13T21:43:58.465Z,24.43
2022-10-13T21:46:31.176Z,25.57
2022-10-13T21:49:01.144Z,23.55
2022-10-13T21:51:34.669Z,23.23
2022-10-13T21:54:06.036Z,22.58
2022-10-13T21:56:34.040Z,22.75
2022-10-13T21:59:01.741Z,23.77
2022-10-13T22:01:28.881Z,22.50
2022-10-13T22:03:58.340Z,23.37
2022-10-13T22:06:26.531Z,22.10
2022-10-13T22:08:56.240Z,22.77
2022-10-13T22:11:26.502Z,22.93
2022-10-13T22:13:53.508Z,23.20
2022-10-13T22:16:24.635Z,23.33
2022-10-13T22:18:53.458Z,22.13
2022-10-13T22:21:27.341Z,22.05
2022-10-13T22:24:05.275Z,21.93
2022-10-13T22:26:35.624Z,22.67
2022-10-13T22:29:06.097Z,24.13
2022-10-13T22:31:33.339Z,23.03
2022-10-13T22:34:01.687Z,22.30
2022-10-13T22:36:30.892Z,23.20
2022-10-13T22:39:01.231Z,24.50
2022-10-13T22:41:28.686Z,23.92
2022-10-13T22:43:57.964Z,23.97
2022-10-13T22:46:29.712Z,24.03
2022-10-13T22:48:58.096Z,23.23
2022-10-13T22:51:28.453Z,22.67
2022-10-13T22:53:57.730Z,23.03
2022-10-13T22:56:28.243Z,22.02
2022-10-13T22:59:04.937Z,22.10
2022-10-13T23:01:31.929Z,22.73
2022-10-13T23:03:59.777Z,21.67
2022-10-13T23:06:31.420Z,23.50
2022-10-13T23:09:04.554Z,22.50
2022-10-13T23:11:31.818Z,22.70
2022-10-13T23:13:58.758Z,24.63
2022-10-13T23:16:26.613Z,24.40
2022-10-13T23:18:54.458Z,24.53
2022-10-13T23:21:23.477Z,26.00
2022-10-13T23:23:59.858Z,25.33
2022-10-13T23:26:27.556Z,24.97
2022-10-13T23:28:56.780Z,25.80
2022-10-13T23:31:24.605Z,25.98
2022-10-13T23:33:51.883Z,25.57
2022-10-13T23:36:23.398Z,24.03
2022-10-13T23:38:56.015Z,25.33
2022-10-13T23:41:23.629Z,25.37
2022-10-13T23:43:50.646Z,27.33
2022-10-13T23:46:17.613Z,26.67
2022-10-13T23:48:44.562Z,26.57
2022-10-13T23:51:16.466Z,26.17
2022-10-13T23:53:43.807Z,26.37
2022-10-13T23:56:12.927Z,26.57
2022-10-13T23:58:42.610Z,26.45
